Time;durP1;ratioP1;P1;durP2;ratioP2;P2;SDS_P1;SDS_P2;PMS_P1;PMS_P2;Temp;Humidity;BMP_temperature;BMP_pressure;BME280_temperature;BME280_humidity;BME280_pressure;Samples;Min_cycle;Max_cycle;Signal;HPM_P1;HPM_P2
2021/03/16 00:00:19;;;;;;;5.10;3.40;;;12.00;99.90;;;;;;5035469;28;20036;-83
2021/03/16 00:02:45;;;;;;;7.43;2.70;;;12.00;99.90;;;;;;5019657;28;20120;-85
2021/03/16 00:05:11;;;;;;;8.07;2.67;;;12.00;99.90;;;;;;5035188;28;20052;-84
2021/03/16 00:07:36;;;;;;;6.20;3.10;;;12.00;99.90;;;;;;5035266;28;20025;-84
2021/03/16 00:10:03;;;;;;;7.03;2.80;;;12.00;99.90;;;;;;5017565;28;20043;-84
2021/03/16 00:12:29;;;;;;;9.93;3.60;;;12.00;99.90;;;;;;5035507;28;20312;-84
2021/03/16 00:14:54;;;;;;;6.70;2.47;;;12.00;99.90;;;;;;5034557;28;20039;-85
2021/03/16 00:17:20;;;;;;;5.20;3.20;;;12.00;99.90;;;;;;5052437;28;20059;-84
2021/03/16 00:19:46;;;;;;;6.15;2.83;;;11.90;99.90;;;;;;5052112;28;20028;-85
2021/03/16 00:22:13;;;;;;;7.97;3.22;;;12.00;99.90;;;;;;5035298;28;20104;-82
2021/03/16 00:24:39;;;;;;;9.13;3.58;;;12.00;99.90;;;;;;5017973;28;20029;-84
2021/03/16 00:27:04;;;;;;;7.35;3.53;;;12.00;99.90;;;;;;5034147;28;20467;-84
2021/03/16 00:29:30;;;;;;;9.43;3.42;;;12.00;99.90;;;;;;5033772;28;20044;-85
2021/03/16 00:31:56;;;;;;;8.02;3.28;;;12.00;99.90;;;;;;5017561;28;20025;-84
2021/03/16 00:34:22;;;;;;;6.45;3.50;;;12.00;99.90;;;;;;5018337;28;20559;-83
2021/03/16 00:36:48;;;;;;;7.75;3.17;;;12.00;99.90;;;;;;5033408;28;20049;-84
2021/03/16 00:39:14;;;;;;;7.60;2.75;;;12.00;99.90;;;;;;5033610;28;20032;-84
2021/03/16 00:41:40;;;;;;;7.32;2.58;;;12.00;99.90;;;;;;5016825;28;20033;-85
2021/03/16 00:44:06;;;;;;;5.63;1.95;;;12.00;99.90;;;;;;5016636;28;20025;-86
2021/03/16 00:46:33;;;;;;;5.60;2.53;;;12.00;99.90;;;;;;5051150;28;20072;-84
2021/03/16 00:48:58;;;;;;;12.30;2.58;;;11.90;99.90;;;;;;5033915;28;20045;-85
2021/03/16 00:51:24;;;;;;;5.40;2.10;;;11.90;99.90;;;;;;5052128;28;20075;-85
2021/03/16 00:53:50;;;;;;;6.60;2.70;;;11.90;99.90;;;;;;5016842;28;20238;-84
2021/03/16 00:56:15;;;;;;;12.63;2.95;;;11.90;99.90;;;;;;5000549;28;20033;-84
2021/03/16 00:58:41;;;;;;;9.23;2.97;;;11.90;99.90;;;;;;5000021;28;20368;-85
2021/03/16 01:01:07;;;;;;;12.80;3.67;;;11.90;99.90;;;;;;5015825;28;20025;-86
2021/03/16 01:03:33;;;;;;;14.68;3.75;;;11.90;99.90;;;;;;5001125;28;20087;-84
2021/03/16 01:06:00;;;;;;;10.23;4.63;;;11.90;99.90;;;;;;5033160;28;20060;-83
2021/03/16 01:08:25;;;;;;;14.57;4.57;;;11.90;99.90;;;;;;5017571;28;20033;-83
2021/03/16 01:10:53;;;;;;;13.10;3.97;;;11.90;99.90;;;;;;5016301;28;20082;-84
2021/03/16 01:13:19;;;;;;;10.45;3.95;;;11.90;99.90;;;;;;5000036;28;20086;-86
2021/03/16 01:15:45;;;;;;;11.73;4.20;;;11.90;99.90;;;;;;5050681;28;20057;-83
2021/03/16 01:18:12;;;;;;;14.30;4.57;;;11.90;99.90;;;;;;5033820;28;20029;-84
2021/03/16 01:20:38;;;;;;;12.85;4.40;;;11.90;99.90;;;;;;5033775;28;20025;-84
2021/03/16 01:23:04;;;;;;;10.20;3.15;;;11.90;99.90;;;;;;5017554;28;20028;-84
2021/03/16 01:25:31;;;;;;;11.82;3.70;;;12.00;99.90;;;;;;5016881;28;20112;-83
2021/03/16 01:27:57;;;;;;;10.27;3.30;;;12.00;99.90;;;;;;5051604;28;20106;-84
2021/03/16 01:30:24;;;;;;;16.33;4.03;;;12.00;99.90;;;;;;5018542;28;20040;-85
2021/03/16 01:32:53;;;;;;;14.27;3.63;;;12.00;99.90;;;;;;5034562;28;20025;-83
2021/03/16 01:35:19;;;;;;;10.55;3.92;;;12.00;99.90;;;;;;5033210;28;20025;-85
2021/03/16 01:37:47;;;;;;;10.32;3.63;;;12.00;99.90;;;;;;5001122;28;20036;-84
2021/03/16 01:40:16;;;;;;;7.82;3.30;;;12.00;99.90;;;;;;5032860;28;20052;-86
2021/03/16 01:42:42;;;;;;;9.02;3.20;;;12.00;99.90;;;;;;5032259;28;20480;-86
2021/03/16 01:45:18;;;;;;;9.80;3.17;;;12.00;99.90;;;;;;5015765;28;20041;-84
2021/03/16 01:47:48;;;;;;;12.25;3.58;;;11.90;99.90;;;;;;5053558;28;20033;-84
2021/03/16 01:50:20;;;;;;;14.90;3.72;;;12.00;99.90;;;;;;5037993;28;20037;-85
2021/03/16 01:52:47;;;;;;;11.02;3.50;;;11.90;99.90;;;;;;5037740;28;20028;-83
2021/03/16 01:55:14;;;;;;;12.18;3.78;;;11.90;99.90;;;;;;5037592;28;20029;-83
2021/03/16 01:57:41;;;;;;;7.35;3.20;;;11.90;99.90;;;;;;5036588;28;20361;-84
2021/03/16 02:00:08;;;;;;;8.80;2.70;;;11.90;99.90;;;;;;5004307;28;20472;-84
2021/03/16 02:02:35;;;;;;;12.82;3.00;;;11.90;99.90;;;;;;5035304;28;20025;-84
2021/03/16 02:05:02;;;;;;;8.02;2.58;;;11.90;99.90;;;;;;5054314;28;20100;-84
2021/03/16 02:07:41;;;;;;;9.90;2.47;;;11.90;99.90;;;;;;5053467;28;20024;-83
2021/03/16 02:10:14;;;;;;;12.95;3.03;;;11.90;99.90;;;;;;5036129;28;20025;-86
2021/03/16 02:12:59;;;;;;;9.60;2.35;;;11.90;99.90;;;;;;5036712;28;20192;-84
2021/03/16 02:15:30;;;;;;;9.93;3.28;;;11.90;99.90;;;;;;5036358;28;20021;-84
2021/03/16 02:18:01;;;;;;;8.93;2.80;;;11.90;99.90;;;;;;5036325;28;20100;-85
2021/03/16 02:20:51;;;;;;;11.63;3.45;;;11.80;99.90;;;;;;5037330;28;20029;-82
2021/03/16 02:23:26;;;;;;;9.65;3.33;;;11.90;99.90;;;;;;5054948;28;20032;-84
2021/03/16 02:26:29;;;;;;;10.23;3.22;;;11.90;99.90;;;;;;5035351;28;20021;-85
2021/03/16 02:29:08;;;;;;;16.35;4.00;;;11.90;99.90;;;;;;5053590;28;20139;-85
2021/03/16 02:31:36;;;;;;;18.47;4.80;;;11.90;99.90;;;;;;5037163;28;20025;-84
2021/03/16 02:34:04;;;;;;;9.50;4.43;;;11.90;99.90;;;;;;5019808;28;20114;-86
2021/03/16 02:36:32;;;;;;;11.73;3.70;;;11.90;99.90;;;;;;5036497;28;20063;-85
2021/03/16 02:39:00;;;;;;;14.35;4.45;;;11.90;99.90;;;;;;5052897;28;20044;-86
2021/03/16 02:41:29;;;;;;;13.88;3.83;;;11.90;99.90;;;;;;5054168;28;20048;-84
2021/03/16 02:43:55;;;;;;;11.27;4.07;;;11.80;99.90;;;;;;5036733;28;20291;-85
2021/03/16 02:46:21;;;;;;;11.52;3.72;;;11.90;99.90;;;;;;5019254;28;20045;-85
2021/03/16 02:48:48;;;;;;;16.45;3.95;;;11.80;99.90;;;;;;5003798;28;20049;-85
2021/03/16 02:51:16;;;;;;;13.07;4.82;;;11.80;99.90;;;;;;5018761;28;20158;-84
2021/03/16 02:53:42;;;;;;;18.48;4.90;;;11.80;99.90;;;;;;5019065;28;20033;-84
2021/03/16 02:56:09;;;;;;;7.30;4.13;;;11.80;99.90;;;;;;5035769;28;20037;-85
2021/03/16 02:58:35;;;;;;;14.70;4.03;;;11.80;99.90;;;;;;5034454;28;20029;-83
2021/03/16 03:01:02;;;;;;;14.02;5.30;;;11.90;99.90;;;;;;5035235;28;20088;-85
2021/03/16 03:03:30;;;;;;;11.80;5.50;;;11.80;99.90;;;;;;5035323;28;20040;-85
2021/03/16 03:05:58;;;;;;;14.63;6.50;;;11.80;99.90;;;;;;5034874;28;20440;-83
2021/03/16 03:08:24;;;;;;;15.57;6.00;;;11.80;99.90;;;;;;5053261;28;20024;-83
2021/03/16 03:10:50;;;;;;;19.15;6.75;;;11.80;99.90;;;;;;5036136;28;20278;-84
2021/03/16 03:13:16;;;;;;;17.17;7.53;;;11.80;99.90;;;;;;5035422;28;20091;-85
2021/03/16 03:15:42;;;;;;;16.70;8.30;;;11.80;99.90;;;;;;5019400;28;20036;-85
2021/03/16 03:18:08;;;;;;;15.43;6.95;;;11.80;99.90;;;;;;5019328;28;20037;-83
2021/03/16 03:20:35;;;;;;;12.80;7.60;;;11.80;99.90;;;;;;5052664;28;20032;-85
2021/03/16 03:23:03;;;;;;;18.20;7.90;;;11.80;99.90;;;;;;5019481;28;20036;-84
2021/03/16 03:25:36;;;;;;;17.67;7.05;;;11.80;99.90;;;;;;5035527;28;20033;-84
2021/03/16 03:28:15;;;;;;;18.52;8.52;;;11.80;99.90;;;;;;5036171;28;20047;-85
2021/03/16 03:30:42;;;;;;;17.70;8.27;;;11.80;99.90;;;;;;5053824;28;20243;-83
2021/03/16 03:33:10;;;;;;;18.77;8.68;;;11.80;99.90;;;;;;5036301;28;20383;-84
2021/03/16 03:35:37;;;;;;;24.08;9.63;;;11.80;99.90;;;;;;5035626;28;20061;-84
2021/03/16 03:38:04;;;;;;;14.30;9.52;;;11.90;99.90;;;;;;5053958;28;20079;-84
2021/03/16 03:40:31;;;;;;;16.65;8.60;;;11.90;99.90;;;;;;5035007;28;20021;-83
2021/03/16 03:43:03;;;;;;;19.08;8.00;;;11.90;99.90;;;;;;5019209;28;20029;-84
2021/03/16 03:45:29;;;;;;;18.23;7.93;;;11.90;99.90;;;;;;5035496;28;20058;-84
2021/03/16 03:47:58;;;;;;;22.40;8.52;;;11.90;99.90;;;;;;5053948;28;20085;-84
2021/03/16 03:50:25;;;;;;;16.77;7.20;;;11.80;99.90;;;;;;5036156;28;20021;-85
2021/03/16 03:52:53;;;;;;;19.67;7.80;;;11.80;99.90;;;;;;5036884;28;20271;-83
2021/03/16 03:55:20;;;;;;;14.25;7.65;;;11.80;99.90;;;;;;5018763;28;20033;-84
2021/03/16 03:57:47;;;;;;;17.30;7.25;;;11.80;99.90;;;;;;5035171;28;20033;-84
2021/03/16 04:00:14;;;;;;;23.13;7.95;;;11.80;99.90;;;;;;5035076;28;20021;-83
2021/03/16 04:02:41;;;;;;;17.35;6.97;;;11.80;99.90;;;;;;5035064;28;20048;-83
2021/03/16 04:05:11;;;;;;;18.17;7.10;;;11.80;99.90;;;;;;5036159;28;20071;-83
2021/03/16 04:07:37;;;;;;;20.95;7.00;;;11.80;99.90;;;;;;5018639;28;20529;-86
2021/03/16 04:10:08;;;;;;;14.23;6.25;;;11.80;99.90;;;;;;5034341;28;20551;-84
2021/03/16 04:12:38;;;;;;;17.85;6.97;;;11.80;99.90;;;;;;5053513;28;20106;-84
2021/03/16 04:15:10;;;;;;;16.27;5.70;;;11.70;99.90;;;;;;5034799;28;20112;-85
2021/03/16 04:17:37;;;;;;;10.07;6.10;;;11.80;99.90;;;;;;5035385;28;20111;-84
2021/03/16 04:20:05;;;;;;;14.07;6.88;;;11.80;99.90;;;;;;5035752;28;20082;-84
2021/03/16 04:22:31;;;;;;;13.05;4.85;;;11.80;99.90;;;;;;5035307;28;20031;-84
2021/03/16 04:24:58;;;;;;;12.65;5.53;;;11.80;99.90;;;;;;5019227;28;20025;-85
2021/03/16 04:27:24;;;;;;;11.98;4.78;;;11.80;99.90;;;;;;5018780;28;20475;-83
2021/03/16 04:29:50;;;;;;;11.88;5.20;;;11.80;99.90;;;;;;5035502;28;20031;-86
2021/03/16 04:32:16;;;;;;;12.25;5.05;;;11.80;99.90;;;;;;5018590;28;20099;-84
2021/03/16 04:34:42;;;;;;;14.88;4.63;;;11.90;99.90;;;;;;5018395;28;20029;-84
2021/03/16 04:37:08;;;;;;;15.18;4.85;;;11.80;99.90;;;;;;5034202;28;20028;-83
2021/03/16 04:39:34;;;;;;;12.25;4.45;;;11.90;99.90;;;;;;5018149;28;20037;-84
2021/03/16 04:41:59;;;;;;;13.15;4.22;;;11.90;99.90;;;;;;5035215;28;20084;-85
2021/03/16 04:44:25;;;;;;;12.18;4.53;;;11.90;99.90;;;;;;5052574;28;20021;-84
2021/03/16 04:46:51;;;;;;;13.90;3.83;;;11.90;99.90;;;;;;5035228;28;20048;-84
2021/03/16 04:49:16;;;;;;;12.00;3.88;;;11.90;99.90;;;;;;5052741;28;20111;-83
2021/03/16 04:51:42;;;;;;;13.65;4.97;;;11.90;99.90;;;;;;5052720;28;20095;-84
2021/03/16 04:54:08;;;;;;;8.27;3.00;;;11.90;99.90;;;;;;5033649;28;20060;-85
2021/03/16 04:56:34;;;;;;;12.00;4.18;;;12.00;99.90;;;;;;5016974;28;20395;-85
2021/03/16 04:59:00;;;;;;;7.03;3.42;;;11.90;99.90;;;;;;5034079;28;20021;-83
2021/03/16 05:01:26;;;;;;;10.90;3.92;;;12.00;99.90;;;;;;5017852;28;20036;-84
2021/03/16 05:03:52;;;;;;;14.75;4.75;;;12.00;99.90;;;;;;5052499;28;20021;-83
2021/03/16 05:06:17;;;;;;;14.27;4.00;;;12.00;99.90;;;;;;5017905;28;20489;-83
2021/03/16 05:08:43;;;;;;;7.50;4.35;;;12.00;99.90;;;;;;5034271;28;20514;-85
2021/03/16 05:11:09;;;;;;;9.13;3.72;;;12.00;99.90;;;;;;5017869;28;20033;-83
2021/03/16 05:13:34;;;;;;;11.63;4.50;;;12.00;99.90;;;;;;5033845;28;20089;-84
2021/03/16 05:16:01;;;;;;;10.68;3.97;;;12.00;99.90;;;;;;5033734;28;20115;-84
2021/03/16 05:18:27;;;;;;;11.15;4.28;;;12.00;99.90;;;;;;5034168;28;20036;-83
2021/03/16 05:20:53;;;;;;;10.52;4.45;;;12.00;99.90;;;;;;5034380;28;20503;-84
2021/03/16 05:23:19;;;;;;;8.82;4.45;;;12.00;99.90;;;;;;5052064;28;20421;-84
2021/03/16 05:25:45;;;;;;;8.20;4.35;;;12.00;99.90;;;;;;5017293;28;20116;-85
2021/03/16 05:28:11;;;;;;;10.10;4.55;;;12.00;99.90;;;;;;5016954;28;20025;-84
2021/03/16 05:30:36;;;;;;;10.82;4.72;;;12.00;99.90;;;;;;5034024;28;20102;-83
2021/03/16 05:33:02;;;;;;;13.35;4.75;;;12.10;99.90;;;;;;5033820;28;20032;-84
2021/03/16 05:35:29;;;;;;;8.63;3.85;;;12.10;99.90;;;;;;5032941;28;20036;-85
2021/03/16 05:37:56;;;;;;;8.50;3.58;;;12.10;99.90;;;;;;5034639;28;20029;-84
2021/03/16 05:40:29;;;;;;;8.27;3.22;;;12.10;99.90;;;;;;5050690;28;20021;-84
2021/03/16 05:42:57;;;;;;;5.43;2.55;;;12.10;99.90;;;;;;5033418;28;20082;-85
2021/03/16 05:45:23;;;;;;;6.65;2.75;;;12.10;99.90;;;;;;5032807;28;20049;-83
2021/03/16 05:47:50;;;;;;;9.57;2.65;;;12.10;99.90;;;;;;5033037;28;20078;-83
2021/03/16 05:50:16;;;;;;;4.88;1.90;;;12.10;99.90;;;;;;5033643;28;20025;-85
2021/03/16 05:52:43;;;;;;;5.80;1.83;;;12.10;99.90;;;;;;5033777;28;20506;-84
2021/03/16 05:55:09;;;;;;;6.68;2.45;;;12.10;99.90;;;;;;5034048;28;20025;-84
2021/03/16 05:57:35;;;;;;;4.35;1.42;;;12.10;99.90;;;;;;5033619;28;20074;-84
2021/03/16 06:00:01;;;;;;;10.15;1.83;;;12.20;99.90;;;;;;5034015;28;20029;-86
2021/03/16 06:02:27;;;;;;;6.70;1.77;;;12.20;99.90;;;;;;5017054;28;20036;-83
2021/03/16 06:04:53;;;;;;;6.20;1.80;;;12.20;99.90;;;;;;5033134;28;20029;-85
2021/03/16 06:07:18;;;;;;;4.78;1.40;;;12.20;99.90;;;;;;5033365;28;20495;-84
2021/03/16 06:09:45;;;;;;;6.38;1.60;;;12.20;99.90;;;;;;5032735;28;20075;-86
2021/03/16 06:12:11;;;;;;;6.63;1.38;;;12.20;99.90;;;;;;5033075;28;20088;-83
2021/03/16 06:14:38;;;;;;;4.60;1.60;;;12.20;99.90;;;;;;5032891;28;20100;-84
2021/03/16 06:17:05;;;;;;;6.85;1.98;;;12.20;99.90;;;;;;5018223;28;20025;-83
2021/03/16 06:19:33;;;;;;;6.40;1.90;;;12.20;99.90;;;;;;5050637;28;20096;-83
2021/03/16 06:22:04;;;;;;;4.47;1.35;;;12.10;99.90;;;;;;5000599;28;20083;-85
2021/03/16 06:24:30;;;;;;;6.45;1.80;;;12.10;99.90;;;;;;5051570;28;20483;-85
2021/03/16 06:26:57;;;;;;;4.22;1.58;;;12.10;99.90;;;;;;5032963;28;20031;-83
2021/03/16 06:29:23;;;;;;;5.28;1.65;;;12.00;99.90;;;;;;5050777;28;20029;-83
2021/03/16 06:31:50;;;;;;;4.97;1.63;;;12.00;99.90;;;;;;5033107;28;20032;-85
2021/03/16 06:34:20;;;;;;;5.57;1.45;;;12.00;99.90;;;;;;5053000;28;20032;-84
2021/03/16 06:36:56;;;;;;;3.33;1.55;;;12.10;99.90;;;;;;5054296;28;20549;-83
2021/03/16 06:39:22;;;;;;;5.30;1.95;;;12.00;99.90;;;;;;5035903;28;20387;-81
2021/03/16 06:41:47;;;;;;;7.88;2.55;;;12.00;99.90;;;;;;5035960;28;20029;-86
2021/03/16 06:44:19;;;;;;;7.22;2.00;;;12.10;99.90;;;;;;5036413;28;20040;-82
2021/03/16 06:46:52;;;;;;;5.30;2.10;;;12.10;99.90;;;;;;5035847;28;20080;-83
2021/03/16 06:49:22;;;;;;;4.57;1.92;;;12.10;99.90;;;;;;5036231;28;20179;-83
2021/03/16 06:51:48;;;;;;;6.57;3.13;;;12.10;99.90;;;;;;5020713;28;20511;-85
2021/03/16 06:54:20;;;;;;;5.13;2.60;;;12.10;99.90;;;;;;5036164;28;20033;-85
2021/03/16 06:57:00;;;;;;;6.43;2.40;;;12.10;99.90;;;;;;5035882;28;20188;-83
2021/03/16 06:59:30;;;;;;;11.25;2.90;;;12.20;99.90;;;;;;5019791;28;20033;-85
2021/03/16 07:01:57;;;;;;;5.00;2.72;;;12.20;99.90;;;;;;5055197;28;20017;-84
2021/03/16 07:04:31;;;;;;;7.75;2.88;;;12.20;99.90;;;;;;5055214;28;20029;-77
2021/03/16 07:06:59;;;;;;;6.85;2.83;;;12.20;99.90;;;;;;5055182;28;20017;-83
2021/03/16 07:09:24;;;;;;;5.85;3.08;;;12.20;99.90;;;;;;5037287;28;20028;-86
2021/03/16 07:11:52;;;;;;;7.63;2.95;;;12.20;99.90;;;;;;5035666;28;20037;-84
2021/03/16 07:14:20;;;;;;;4.38;2.42;;;12.30;99.90;;;;;;5037030;28;20033;-84
2021/03/16 07:16:48;;;;;;;6.03;2.75;;;12.30;99.90;;;;;;5037150;28;20082;-85
2021/03/16 07:19:15;;;;;;;6.38;2.40;;;12.30;99.90;;;;;;5019996;28;20032;-84
2021/03/16 07:21:52;;;;;;;5.25;2.50;;;12.40;99.90;;;;;;5036045;28;20510;-84
2021/03/16 07:24:23;;;;;;;4.32;2.20;;;12.40;99.90;;;;;;5035900;28;20075;-85
2021/03/16 07:26:49;;;;;;;4.78;1.75;;;12.50;99.90;;;;;;5036025;28;20054;-85
2021/03/16 07:29:17;;;;;;;3.80;2.00;;;12.50;99.90;;;;;;5002526;28;20029;-84
2021/03/16 07:31:43;;;;;;;2.38;1.35;;;12.60;99.90;;;;;;5054345;28;20487;-84
2021/03/16 07:34:11;;;;;;;4.65;2.00;;;12.60;99.90;;;;;;5035719;28;20050;-84
2021/03/16 07:36:38;;;;;;;3.60;1.95;;;12.60;99.90;;;;;;5035758;28;20055;-84
2021/03/16 07:39:10;;;;;;;3.20;1.67;;;12.70;99.90;;;;;;5018233;28;20139;-84
2021/03/16 07:41:37;;;;;;;4.53;1.60;;;12.70;99.90;;;;;;5034256;28;20017;-85
2021/03/16 07:44:07;;;;;;;3.50;1.80;;;12.70;99.90;;;;;;5035046;28;20112;-82
2021/03/16 07:46:41;;;;;;;5.75;2.00;;;12.80;99.90;;;;;;5053056;28;20037;-86
2021/03/16 07:49:07;;;;;;;1.80;1.30;;;12.80;99.90;;;;;;5035177;28;20033;-82
2021/03/16 07:51:34;;;;;;;2.30;1.50;;;12.80;99.90;;;;;;5018887;28;20387;-84
2021/03/16 07:54:10;;;;;;;3.17;1.60;;;12.80;99.90;;;;;;5035284;28;20359;-83
2021/03/16 07:56:37;;;;;;;1.70;1.10;;;12.80;99.90;;;;;;5018768;28;20057;-84
2021/03/16 07:59:04;;;;;;;6.43;1.27;;;12.90;99.90;;;;;;5018554;28;20454;-82
2021/03/16 08:01:31;;;;;;;2.97;1.10;;;12.90;99.90;;;;;;5034726;28;20053;-84
2021/03/16 08:04:10;;;;;;;5.70;1.33;;;12.90;99.90;;;;;;5034353;28;20040;-84
2021/03/16 08:06:36;;;;;;;3.20;1.77;;;13.00;99.90;;;;;;5034006;28;20017;-83
2021/03/16 08:09:17;;;;;;;2.53;1.05;;;13.00;99.90;;;;;;5017198;28;20029;-83
2021/03/16 08:11:43;;;;;;;2.55;1.40;;;13.00;99.90;;;;;;5049957;28;20104;-85
2021/03/16 08:14:09;;;;;;;1.45;0.93;;;13.10;99.90;;;;;;5016731;28;20083;-84
2021/03/16 08:16:38;;;;;;;4.00;1.23;;;13.20;99.90;;;;;;5016186;28;20032;-83
2021/03/16 08:19:11;;;;;;;2.38;1.10;;;13.20;99.90;;;;;;5032421;28;20425;-83
2021/03/16 08:21:38;;;;;;;1.65;0.90;;;13.30;99.90;;;;;;5032807;28;20024;-85
2021/03/16 08:24:09;;;;;;;1.67;1.00;;;13.30;99.90;;;;;;5000607;28;20035;-83
2021/03/16 08:26:55;;;;;;;1.40;1.00;;;13.30;99.90;;;;;;5015804;28;20387;-85
2021/03/16 08:29:28;;;;;;;1.98;1.00;;;13.40;99.90;;;;;;5032290;28;20050;-76
2021/03/16 08:31:56;;;;;;;5.72;1.20;;;13.40;99.90;;;;;;5016167;28;20025;-84
2021/03/16 08:34:24;;;;;;;3.13;1.25;;;13.40;99.90;;;;;;5000246;28;20506;-86
2021/03/16 08:36:50;;;;;;;1.60;1.15;;;13.40;99.90;;;;;;5016262;28;20472;-85
2021/03/16 08:39:36;;;;;;;2.60;1.20;;;13.40;99.90;;;;;;5017573;28;20041;-86
2021/03/16 08:42:04;;;;;;;2.05;1.10;;;13.40;99.90;;;;;;5051170;28;20085;-84
2021/03/16 08:44:31;;;;;;;1.75;1.10;;;13.50;99.90;;;;;;5051728;28;20025;-86
2021/03/16 08:47:10;;;;;;;3.75;1.15;;;13.50;99.90;;;;;;5050800;28;20049;-83
2021/03/16 08:49:40;;;;;;;2.95;1.65;;;13.50;99.90;;;;;;5016566;28;20170;-85
2021/03/16 08:52:18;;;;;;;4.97;2.47;;;13.50;99.90;;;;;;4999627;28;20406;-85
2021/03/16 08:54:45;;;;;;;2.47;1.40;;;13.50;99.90;;;;;;5032188;28;20042;-85
2021/03/16 08:57:17;;;;;;;1.40;1.00;;;13.50;99.90;;;;;;5029791;28;20036;-82
2021/03/16 08:59:50;;;;;;;2.28;1.30;;;13.60;99.90;;;;;;5030607;28;20029;-82
2021/03/16 09:02:30;;;;;;;1.35;0.80;;;13.60;99.90;;;;;;5030091;28;20357;-81
2021/03/16 09:04:57;;;;;;;3.53;0.90;;;13.70;99.90;;;;;;5030392;28;20021;-84
2021/03/16 09:07:24;;;;;;;2.47;1.13;;;13.80;99.90;;;;;;5014645;28;20120;-86
2021/03/16 09:09:50;;;;;;;1.23;0.88;;;13.80;99.90;;;;;;5030780;28;20059;-85
2021/03/16 09:12:30;;;;;;;0.80;0.60;;;13.90;99.90;;;;;;5050636;28;20024;-83
2021/03/16 09:15:29;;;;;;;2.05;0.77;;;14.40;99.90;;;;;;5015343;28;20038;-85
2021/03/16 09:18:01;;;;;;;0.85;0.40;;;14.80;99.90;;;;;;5030500;28;20116;-86
2021/03/16 09:20:36;;;;;;;0.45;0.38;;;15.30;99.90;;;;;;5015280;28;20072;-82
2021/03/16 09:23:11;;;;;;;0.30;0.20;;;15.60;99.90;;;;;;5030326;28;20104;-85
2021/03/16 09:25:38;;;;;;;0.38;0.13;;;16.20;99.90;;;;;;5014383;28;20026;-86
2021/03/16 09:28:07;;;;;;;1.08;0.35;;;16.80;99.90;;;;;;5049042;28;20025;-85
2021/03/16 09:30:44;;;;;;;0.93;0.38;;;17.00;99.90;;;;;;5030182;28;20483;-84
2021/03/16 09:33:12;;;;;;;0.77;0.40;;;16.90;99.90;;;;;;5014750;28;20043;-85
2021/03/16 09:35:38;;;;;;;0.40;0.30;;;17.40;99.90;;;;;;5030804;28;20055;-84
2021/03/16 09:38:05;;;;;;;0.70;0.55;;;17.80;99.90;;;;;;5030252;28;20494;-85
2021/03/16 09:40:42;;;;;;;1.17;0.40;;;17.80;98.60;;;;;;5030266;28;20024;-86
2021/03/16 09:43:23;;;;;;;0.73;0.30;;;17.50;97.80;;;;;;5012959;28;20060;-86
2021/03/16 09:45:54;;;;;;;0.52;0.30;;;17.00;97.50;;;;;;5029782;28;20052;-84
2021/03/16 09:48:20;;;;;;;1.90;0.45;;;16.70;97.80;;;;;;5029638;28;20029;-85
2021/03/16 09:50:46;;;;;;;1.00;0.40;;;16.50;98.00;;;;;;5013626;28;20036;-83
2021/03/16 09:53:15;;;;;;;0.47;0.32;;;16.20;98.20;;;;;;5029840;28;20577;-85
2021/03/16 09:55:42;;;;;;;0.20;0.10;;;16.10;98.20;;;;;;5030519;28;20045;-86
2021/03/16 09:58:22;;;;;;;0.43;0.30;;;15.90;98.10;;;;;;5032394;28;20116;-86
2021/03/16 10:00:49;;;;;;;1.17;0.30;;;15.60;98.20;;;;;;5049585;28;20032;-85
2021/03/16 10:03:16;;;;;;;3.38;0.60;;;15.40;98.50;;;;;;5031415;28;20123;-85
2021/03/16 10:05:42;;;;;;;0.70;0.38;;;15.20;98.50;;;;;;5031463;28;20402;-86
2021/03/16 10:08:08;;;;;;;1.15;0.70;;;15.20;98.80;;;;;;5033134;28;20104;-83
2021/03/16 10:10:39;;;;;;;1.20;0.63;;;15.20;98.80;;;;;;5018684;28;20491;-84
2021/03/16 10:13:10;;;;;;;2.33;0.60;;;15.20;98.70;;;;;;5035968;28;20112;-85
2021/03/16 10:15:41;;;;;;;2.97;0.85;;;15.20;99.00;;;;;;5053446;28;20021;-85
2021/03/16 10:18:10;;;;;;;1.85;0.80;;;15.30;98.90;;;;;;5053716;28;20100;-84
2021/03/16 10:20:37;;;;;;;;;;;15.50;99.20;;;;;;5036371;28;20071;-85
2021/03/16 10:23:09;;;;;;;1.33;0.77;;;16.50;99.90;;;;;;5034409;28;19935;-85
2021/03/16 10:25:35;;;;;;;3.42;1.23;;;17.90;99.90;;;;;;5051968;28;20017;-86
2021/03/16 10:28:04;;;;;;;3.03;1.15;;;19.20;99.70;;;;;;5017428;28;20111;-85
2021/03/16 10:30:32;;;;;;;3.72;1.30;;;20.10;97.20;;;;;;5032984;28;20364;-84
2021/03/16 10:32:58;;;;;;;2.53;1.50;;;20.60;95.60;;;;;;5033194;28;20043;-87
2021/03/16 10:35:24;;;;;;;1.08;0.60;;;20.80;93.50;;;;;;5033875;28;20426;-87
2021/03/16 10:37:50;;;;;;;4.43;1.85;;;21.00;93.00;;;;;;5034661;28;20040;-85
2021/03/16 10:40:17;;;;;;;2.78;1.02;;;21.80;93.10;;;;;;5033140;28;20031;-85
2021/03/16 10:42:42;;;;;;;2.80;1.10;;;23.00;92.50;;;;;;5051469;28;20055;-86
2021/03/16 10:45:08;;;;;;;2.38;0.80;;;24.30;90.70;;;;;;5016673;28;20076;-85
2021/03/16 10:47:34;;;;;;;1.67;0.60;;;25.40;86.70;;;;;;5017043;28;20043;-87
2021/03/16 10:50:00;;;;;;;3.00;1.20;;;26.30;82.70;;;;;;5001537;28;20033;-86
2021/03/16 10:52:26;;;;;;;5.75;1.55;;;27.10;77.80;;;;;;5016805;28;20475;-85
2021/03/16 10:54:51;;;;;;;2.15;1.05;;;27.20;73.50;;;;;;5033990;28;20055;-83
2021/03/16 10:57:17;;;;;;;6.55;0.90;;;27.30;71.20;;;;;;5017243;28;20061;-86
2021/03/16 10:59:44;;;;;;;2.95;1.40;;;27.60;69.60;;;;;;5034275;28;20064;-84
2021/03/16 11:02:10;;;;;;;7.75;1.00;;;28.00;67.10;;;;;;5002013;28;20058;-84
2021/03/16 11:04:36;;;;;;;4.47;1.00;;;27.80;64.50;;;;;;5050999;28;20479;-85
2021/03/16 11:07:02;;;;;;;6.88;1.00;;;27.10;62.90;;;;;;5033771;28;20508;-85
2021/03/16 11:09:28;;;;;;;9.05;1.02;;;26.40;62.20;;;;;;5033746;28;20044;-84
2021/03/16 11:11:54;;;;;;;3.17;0.90;;;25.80;63.70;;;;;;5033535;28;20033;-84
2021/03/16 11:14:19;;;;;;;6.15;1.60;;;26.20;65.00;;;;;;5032446;28;20025;-85
2021/03/16 11:16:45;;;;;;;5.88;1.65;;;26.70;64.20;;;;;;5000004;28;20035;-83
2021/03/16 11:19:11;;;;;;;7.47;1.42;;;27.20;63.30;;;;;;5015518;28;20433;-81
2021/03/16 11:21:37;;;;;;;2.80;1.10;;;27.50;61.30;;;;;;5032739;28;20041;-85
2021/03/16 11:24:03;;;;;;;3.55;0.73;;;27.50;60.10;;;;;;5016409;28;20116;-85
2021/03/16 11:26:28;;;;;;;5.15;1.10;;;27.80;59.90;;;;;;5016414;28;20128;-86
2021/03/16 11:28:54;;;;;;;7.18;1.27;;;27.40;57.50;;;;;;5000196;28;20037;-86
2021/03/16 11:31:20;;;;;;;7.13;1.67;;;26.80;57.30;;;;;;5017483;28;20052;-82
2021/03/16 11:33:46;;;;;;;6.10;1.73;;;26.40;58.60;;;;;;5051428;28;20052;-85
2021/03/16 11:36:11;;;;;;;6.05;1.27;;;26.80;59.20;;;;;;5018216;28;20029;-84
2021/03/16 11:38:37;;;;;;;3.60;1.25;;;27.70;58.90;;;;;;5034514;28;20041;-84
2021/03/16 11:41:03;;;;;;;6.10;1.23;;;28.40;56.40;;;;;;5035827;28;20022;-84
2021/03/16 11:43:29;;;;;;;9.70;1.75;;;28.60;55.40;;;;;;5034272;28;20055;-84
2021/03/16 11:45:54;;;;;;;4.80;1.23;;;28.70;55.10;;;;;;5017573;28;20464;-85
2021/03/16 11:48:20;;;;;;;4.63;1.08;;;29.10;54.50;;;;;;5016436;28;20032;-85
2021/03/16 11:50:46;;;;;;;3.90;1.20;;;28.60;52.20;;;;;;5033256;28;20021;-86
2021/03/16 11:53:12;;;;;;;16.30;2.80;;;27.80;52.60;;;;;;5034143;28;20025;-85
2021/03/16 11:55:38;;;;;;;4.15;1.48;;;27.50;53.30;;;;;;5034488;28;20386;-86
2021/03/16 11:58:03;;;;;;;7.03;1.20;;;27.70;54.00;;;;;;5033709;28;20029;-88
2021/03/16 12:00:29;;;;;;;11.40;1.60;;;28.30;53.60;;;;;;5048828;28;20025;-84
2021/03/16 12:02:56;;;;;;;7.40;1.85;;;28.80;52.40;;;;;;5017120;28;20125;-83
2021/03/16 12:05:23;;;;;;;7.60;1.42;;;29.20;51.60;;;;;;5050924;28;20053;-86
2021/03/16 12:07:48;;;;;;;6.32;1.73;;;28.80;51.40;;;;;;5033229;28;20082;-85
2021/03/16 12:10:14;;;;;;;15.98;2.38;;;27.70;50.20;;;;;;5031768;28;20479;-80
2021/03/16 12:12:40;;;;;;;8.55;2.88;;;27.20;51.40;;;;;;5016500;28;20044;-85
2021/03/16 12:15:12;;;;;;;7.18;1.83;;;27.30;51.50;;;;;;5033423;28;20025;-86
2021/03/16 12:17:37;;;;;;;7.68;1.75;;;27.50;50.60;;;;;;5052233;28;20029;-87
2021/03/16 12:20:05;;;;;;;5.70;1.67;;;27.90;50.80;;;;;;5017149;28;20037;-84
2021/03/16 12:22:31;;;;;;;8.55;2.22;;;28.00;49.30;;;;;;5032936;28;20463;-87
2021/03/16 12:24:56;;;;;;;5.60;2.03;;;27.60;49.30;;;;;;5049702;28;20028;-86
2021/03/16 12:27:22;;;;;;;17.90;2.08;;;27.50;49.10;;;;;;5034056;28;20051;-82
2021/03/16 12:29:48;;;;;;;7.75;2.60;;;27.40;48.90;;;;;;5016115;28;20301;-85
2021/03/16 12:32:13;;;;;;;6.07;2.00;;;27.30;48.20;;;;;;5016123;28;20132;-86
2021/03/16 12:34:40;;;;;;;6.32;2.35;;;27.00;47.40;;;;;;5032962;28;20037;-84
2021/03/16 12:37:07;;;;;;;8.95;2.10;;;26.50;47.70;;;;;;5031295;28;20028;-85
2021/03/16 12:39:34;;;;;;;9.00;2.38;;;26.10;47.40;;;;;;5031507;28;20503;-85
2021/03/16 12:42:00;;;;;;;7.40;2.20;;;25.60;47.00;;;;;;5031971;28;20029;-84
2021/03/16 12:44:25;;;;;;;8.18;2.13;;;25.30;47.10;;;;;;4998494;28;20078;-85
2021/03/16 12:46:51;;;;;;;11.70;2.97;;;25.00;46.70;;;;;;5014345;28;20055;-84